PWSweather.com
Personal Weather Stations
Station Observations
MBORO100
Brandywood , Murfreesboro, TN 37130

Brandywood Murfreesboro, TN 37130

Lat: 35.908093, Lon: -86.31352

Elevation: 690

Station Type: Davis

www.murfreesboroweather.com

High Low Average
Temperature 48.1°F8.9°C 28.6°F-1.9°C 38.2°F3.4°C
Dew Point 28.4°F-2.0°C 17.2°F-8.2°C 22.0°F-5.6°C
Winds 4.6 mph 7.4 kmh Calm Calm 1.0 mph W1.6 kmh W
Wind Gusts 9.2 mph14.8 kmh -- 2.0 mph3.2 kmh
Humidity 86% 30% 55%
Pressure 30.27 in1025.1 mb 30.09 in1019.0 mb -
Precipitation 0.00 in0.0 mm - -
Hour Temp Dew Point Humidity Winds Wind Gusts Pressure Precip Precip Rate Daily Precip Total
12:00 AM 38.9°F3.8°C 26.6°F-3.0°C 61% 2.3 mph NW3.7 kmh NW 4.6 mph7.4 kmh 30.16 in1021.3 mb - 0.00 in0.0 mm 0.00 in0.0 mm
12:10 AM 38.3°F3.5°C 26.8°F-2.9°C 63% 2.3 mph NW3.7 kmh NW 3.5 mph5.6 kmh 30.16 in1021.3 mb - 0.00 in0.0 mm 0.00 in0.0 mm
12:15 AM 38.1°F3.4°C 26.6°F-3.0°C 63% 1.2 mph NW1.9 kmh NW 2.3 mph3.7 kmh 30.17 in1021.7 mb - 0.00 in0.0 mm 0.00 in0.0 mm
12:20 AM 37.9°F3.3°C 26.8°F-2.9°C 64% Calm Calm -- 30.17 in1021.7 mb - 0.00 in0.0 mm 0.00 in0.0 mm
12:25 AM 37.6°F3.1°C 26.6°F-3.0°C 64% Calm Calm -- 30.17 in1021.7 mb - 0.00 in0.0 mm 0.00 in0.0 mm
12:30 AM 37.5°F3.1°C 26.8°F-2.9°C 65% 1.2 mph NW1.9 kmh NW 2.3 mph3.7 kmh 30.17 in1021.7 mb - 0.00 in0.0 mm 0.00 in0.0 mm
12:35 AM 37.4°F3.0°C 26.7°F-2.9°C 65% 1.2 mph NW1.9 kmh NW 2.3 mph3.7 kmh 30.17 in1021.7 mb - 0.00 in0.0 mm 0.00 in0.0 mm
12:40 AM 37.3°F2.9°C 26.6°F-3.0°C 65% 1.2 mph NW1.9 kmh NW 3.5 mph5.6 kmh 30.17 in1021.7 mb - 0.00 in0.0 mm 0.00 in0.0 mm
12:45 AM 37.1°F2.8°C 26.8°F-2.9°C 66% 2.3 mph N3.7 kmh N 4.6 mph7.4 kmh 30.17 in1021.7 mb - 0.00 in0.0 mm 0.00 in0.0 mm
12:50 AM 37.2°F2.9°C 26.9°F-2.8°C 66% 1.2 mph N1.9 kmh N 3.5 mph5.6 kmh 30.17 in1021.7 mb - 0.00 in0.0 mm 0.00 in0.0 mm
12:55 AM 37.1°F2.8°C 27.2°F-2.7°C 67% 1.2 mph N1.9 kmh N 2.3 mph3.7 kmh 30.17 in1021.7 mb - 0.00 in0.0 mm 0.00 in0.0 mm
01:00 AM 37.1°F2.8°C 27.2°F-2.7°C 67% 2.3 mph N3.7 kmh N 3.5 mph5.6 kmh 30.18 in1022.0 mb - 0.00 in0.0 mm 0.00 in0.0 mm
01:10 AM 37.0°F2.8°C 28.1°F-2.2°C 70% 2.3 mph N3.7 kmh N 3.5 mph5.6 kmh 30.18 in1022.0 mb - 0.00 in0.0 mm 0.00 in0.0 mm
01:15 AM 36.8°F2.7°C 28.3°F-2.1°C 71% 1.2 mph NNW1.9 kmh NNW 3.5 mph5.6 kmh 30.18 in1022.0 mb - 0.00 in0.0 mm 0.00 in0.0 mm
01:20 AM 36.6°F2.6°C 28.4°F-2.0°C 72% 1.2 mph N1.9 kmh N 2.3 mph3.7 kmh 30.18 in1022.0 mb - 0.00 in0.0 mm 0.00 in0.0 mm
01:25 AM 36.2°F2.3°C 28.4°F-2.0°C 73% 1.2 mph N1.9 kmh N 3.5 mph5.6 kmh 30.18 in1022.0 mb - 0.00 in0.0 mm 0.00 in0.0 mm
01:30 AM 36.1°F2.3°C 28.3°F-2.1°C 73% 2.3 mph N3.7 kmh N 4.6 mph7.4 kmh 30.18 in1022.0 mb - 0.00 in0.0 mm 0.00 in0.0 mm
01:35 AM 36.1°F2.3°C 28.3°F-2.1°C 73% 1.2 mph N1.9 kmh N 2.3 mph3.7 kmh 30.18 in1022.0 mb - 0.00 in0.0 mm 0.00 in0.0 mm
01:40 AM 35.9°F2.2°C 28.1°F-2.2°C 73% 2.3 mph NNE3.7 kmh NNE 3.5 mph5.6 kmh 30.18 in1022.0 mb - 0.00 in0.0 mm 0.00 in0.0 mm
01:45 AM 35.7°F2.1°C 27.9°F-2.3°C 73% 1.2 mph N1.9 kmh N 3.5 mph5.6 kmh 30.19 in1022.4 mb - 0.00 in0.0 mm 0.00 in0.0 mm
01:50 AM 35.4°F1.9°C 27.9°F-2.3°C 74% Calm Calm -- 30.19 in1022.4 mb - 0.00 in0.0 mm 0.00 in0.0 mm
01:55 AM 35.1°F1.7°C 27.7°F-2.4°C 74% 2.3 mph N3.7 kmh N 3.5 mph5.6 kmh 30.19 in1022.4 mb - 0.00 in0.0 mm 0.00 in0.0 mm
02:00 AM 35.0°F1.7°C 27.5°F-2.5°C 74% 1.2 mph N1.9 kmh N 3.5 mph5.6 kmh 30.20 in1022.7 mb - 0.00 in0.0 mm 0.00 in0.0 mm
02:10 AM 34.7°F1.5°C 26.9°F-2.8°C 73% 1.2 mph NNE1.9 kmh NNE 2.3 mph3.7 kmh 30.19 in1022.4 mb - 0.00 in0.0 mm 0.00 in0.0 mm
02:15 AM 34.4°F1.3°C 27.0°F-2.8°C 74% 1.2 mph N1.9 kmh N 3.5 mph5.6 kmh 30.19 in1022.4 mb - 0.00 in0.0 mm 0.00 in0.0 mm
02:20 AM 34.3°F1.3°C 26.9°F-2.8°C 74% 1.2 mph N1.9 kmh N 2.3 mph3.7 kmh 30.19 in1022.4 mb - 0.00 in0.0 mm 0.00 in0.0 mm
02:25 AM 34.2°F1.2°C 27.1°F-2.7°C 75% 1.2 mph N1.9 kmh N 3.5 mph5.6 kmh 30.19 in1022.4 mb - 0.00 in0.0 mm 0.00 in0.0 mm
02:30 AM 34.0°F1.1°C 26.9°F-2.8°C 75% 1.2 mph N1.9 kmh N 2.3 mph3.7 kmh 30.19 in1022.4 mb - 0.00 in0.0 mm 0.00 in0.0 mm
02:35 AM 33.8°F1.0°C 27.0°F-2.8°C 76% 1.2 mph N1.9 kmh N 2.3 mph3.7 kmh 30.19 in1022.4 mb - 0.00 in0.0 mm 0.00 in0.0 mm
02:40 AM 33.7°F0.9°C 26.9°F-2.8°C 76% 1.2 mph NNW1.9 kmh NNW 2.3 mph3.7 kmh 30.19 in1022.4 mb - 0.00 in0.0 mm 0.00 in0.0 mm
02:45 AM 33.5°F0.8°C 26.8°F-2.9°C 76% Calm Calm -- 30.19 in1022.4 mb - 0.00 in0.0 mm 0.00 in0.0 mm
02:50 AM 33.3°F0.7°C 26.6°F-3.0°C 76% Calm Calm -- 30.19 in1022.4 mb - 0.00 in0.0 mm 0.00 in0.0 mm
02:55 AM 33.1°F0.6°C 26.7°F-2.9°C 77% Calm Calm -- 30.19 in1022.4 mb - 0.00 in0.0 mm 0.00 in0.0 mm
03:00 AM 32.9°F0.5°C 26.5°F-3.1°C 77% Calm Calm -- 30.19 in1022.4 mb - 0.00 in0.0 mm 0.00 in0.0 mm
03:10 AM 32.7°F0.4°C 26.6°F-3.0°C 78% Calm Calm -- 30.19 in1022.4 mb - 0.00 in0.0 mm 0.00 in0.0 mm
03:15 AM 32.6°F0.3°C 26.5°F-3.1°C 78% Calm Calm -- 30.19 in1022.4 mb - 0.00 in0.0 mm 0.00 in0.0 mm
03:20 AM 32.3°F0.2°C 26.2°F-3.2°C 78% Calm Calm -- 30.19 in1022.4 mb - 0.00 in0.0 mm 0.00 in0.0 mm
03:25 AM 32.1°F0.1°C 26.6°F-3.0°C 80% Calm Calm -- 30.19 in1022.4 mb - 0.00 in0.0 mm 0.00 in0.0 mm
03:30 AM 32.0°F0.0°C 26.5°F-3.1°C 80% Calm Calm -- 30.19 in1022.4 mb - 0.00 in0.0 mm 0.00 in0.0 mm
03:35 AM 31.9°F-0.1°C 26.4°F-3.1°C 80% Calm Calm -- 30.18 in1022.0 mb - 0.00 in0.0 mm 0.00 in0.0 mm
03:40 AM 31.6°F-0.2°C 26.1°F-3.3°C 80% Calm Calm -- 30.19 in1022.4 mb - 0.00 in0.0 mm 0.00 in0.0 mm
03:45 AM 31.3°F-0.4°C 26.2°F-3.2°C 81% Calm Calm -- 30.18 in1022.0 mb - 0.00 in0.0 mm 0.00 in0.0 mm
03:50 AM 31.2°F-0.4°C 26.0°F-3.3°C 81% Calm Calm -- 30.19 in1022.4 mb - 0.00 in0.0 mm 0.00 in0.0 mm
03:55 AM 31.2°F-0.4°C 26.0°F-3.3°C 81% 1.2 mph NNE1.9 kmh NNE 2.3 mph3.7 kmh 30.19 in1022.4 mb - 0.00 in0.0 mm 0.00 in0.0 mm
04:00 AM 31.3°F-0.4°C 26.1°F-3.3°C 81% 1.2 mph N1.9 kmh N 3.5 mph5.6 kmh 30.19 in1022.4 mb - 0.00 in0.0 mm 0.00 in0.0 mm
04:10 AM 31.3°F-0.4°C 26.2°F-3.2°C 81% Calm Calm -- 30.19 in1022.4 mb - 0.00 in0.0 mm 0.00 in0.0 mm
04:15 AM 31.2°F-0.4°C 26.1°F-3.3°C 81% Calm Calm -- 30.19 in1022.4 mb - 0.00 in0.0 mm 0.00 in0.0 mm
04:20 AM 31.1°F-0.5°C 26.0°F-3.3°C 81% Calm Calm -- 30.19 in1022.4 mb - 0.00 in0.0 mm 0.00 in0.0 mm
04:25 AM 31.0°F-0.6°C 25.9°F-3.4°C 81% Calm Calm -- 30.19 in1022.4 mb - 0.00 in0.0 mm 0.00 in0.0 mm
04:30 AM 30.8°F-0.7°C 25.7°F-3.5°C 81% Calm Calm -- 30.19 in1022.4 mb - 0.00 in0.0 mm 0.00 in0.0 mm
04:35 AM 30.7°F-0.7°C 25.6°F-3.6°C 81% Calm Calm -- 30.19 in1022.4 mb - 0.00 in0.0 mm 0.00 in0.0 mm
04:40 AM 30.5°F-0.8°C 25.4°F-3.7°C 81% Calm Calm -- 30.20 in1022.7 mb - 0.00 in0.0 mm 0.00 in0.0 mm
04:45 AM 30.5°F-0.8°C 25.7°F-3.5°C 82% Calm Calm -- 30.20 in1022.7 mb - 0.00 in0.0 mm 0.00 in0.0 mm
04:50 AM 30.4°F-0.9°C 25.6°F-3.6°C 82% Calm Calm -- 30.20 in1022.7 mb - 0.00 in0.0 mm 0.00 in0.0 mm
04:55 AM 30.3°F-0.9°C 25.5°F-3.6°C 82% Calm Calm -- 30.20 in1022.7 mb - 0.00 in0.0 mm 0.00 in0.0 mm
05:00 AM 30.3°F-0.9°C 25.5°F-3.6°C 82% Calm Calm -- 30.20 in1022.7 mb - 0.00 in0.0 mm 0.00 in0.0 mm
05:10 AM 30.2°F-1.0°C 25.4°F-3.7°C 82% Calm Calm -- 30.20 in1022.7 mb - 0.00 in0.0 mm 0.00 in0.0 mm
05:15 AM 30.1°F-1.1°C 25.3°F-3.7°C 82% Calm Calm -- 30.20 in1022.7 mb - 0.00 in0.0 mm 0.00 in0.0 mm
05:20 AM 30.1°F-1.1°C 25.3°F-3.7°C 82% Calm Calm -- 30.20 in1022.7 mb - 0.00 in0.0 mm 0.00 in0.0 mm
05:25 AM 30.1°F-1.1°C 25.2°F-3.8°C 82% Calm Calm -- 30.20 in1022.7 mb - 0.00 in0.0 mm 0.00 in0.0 mm
05:30 AM 30.0°F-1.1°C 25.2°F-3.8°C 82% Calm Calm -- 30.20 in1022.7 mb - 0.00 in0.0 mm 0.00 in0.0 mm
05:35 AM 29.9°F-1.2°C 25.4°F-3.7°C 83% Calm Calm -- 30.20 in1022.7 mb - 0.00 in0.0 mm 0.00 in0.0 mm
05:40 AM 29.9°F-1.2°C 25.4°F-3.7°C 83% Calm Calm -- 30.21 in1023.0 mb - 0.00 in0.0 mm 0.00 in0.0 mm
05:45 AM 29.8°F-1.2°C 25.3°F-3.7°C 83% Calm Calm -- 30.21 in1023.0 mb - 0.00 in0.0 mm 0.00 in0.0 mm
05:50 AM 29.7°F-1.3°C 25.2°F-3.8°C 83% Calm Calm -- 30.21 in1023.0 mb - 0.00 in0.0 mm 0.00 in0.0 mm
05:55 AM 29.7°F-1.3°C 25.2°F-3.8°C 83% Calm Calm -- 30.21 in1023.0 mb - 0.00 in0.0 mm 0.00 in0.0 mm
06:00 AM 29.6°F-1.3°C 25.4°F-3.7°C 84% Calm Calm -- 30.21 in1023.0 mb - 0.00 in0.0 mm 0.00 in0.0 mm
06:10 AM 29.3°F-1.5°C 25.1°F-3.8°C 84% Calm Calm -- 30.21 in1023.0 mb - 0.00 in0.0 mm 0.00 in0.0 mm
06:15 AM 29.3°F-1.5°C 25.1°F-3.8°C 84% Calm Calm -- 30.21 in1023.0 mb - 0.00 in0.0 mm 0.00 in0.0 mm
06:20 AM 29.3°F-1.5°C 25.1°F-3.8°C 84% Calm Calm 1.2 mph1.9 kmh 30.21 in1023.0 mb - 0.00 in0.0 mm 0.00 in0.0 mm
06:25 AM 29.4°F-1.4°C 25.2°F-3.8°C 84% Calm Calm 1.2 mph1.9 kmh 30.21 in1023.0 mb - 0.00 in0.0 mm 0.00 in0.0 mm
06:30 AM 29.3°F-1.5°C 25.1°F-3.8°C 84% Calm Calm -- 30.21 in1023.0 mb - 0.00 in0.0 mm 0.00 in0.0 mm
06:35 AM 29.2°F-1.6°C 25.0°F-3.9°C 84% 1.2 mph N1.9 kmh N 1.2 mph1.9 kmh 30.21 in1023.0 mb - 0.00 in0.0 mm 0.00 in0.0 mm
06:40 AM 29.2°F-1.6°C 25.3°F-3.7°C 85% Calm Calm -- 30.21 in1023.0 mb - 0.00 in0.0 mm 0.00 in0.0 mm
06:45 AM 29.1°F-1.6°C 25.1°F-3.8°C 85% Calm Calm -- 30.21 in1023.0 mb - 0.00 in0.0 mm 0.00 in0.0 mm
06:50 AM 28.9°F-1.7°C 25.0°F-3.9°C 85% Calm Calm -- 30.22 in1023.4 mb - 0.00 in0.0 mm 0.00 in0.0 mm
06:55 AM 28.8°F-1.8°C 25.1°F-3.8°C 86% Calm Calm -- 30.22 in1023.4 mb - 0.00 in0.0 mm 0.00 in0.0 mm
07:00 AM 28.8°F-1.8°C 25.1°F-3.8°C 86% Calm Calm -- 30.22 in1023.4 mb - 0.00 in0.0 mm 0.00 in0.0 mm
07:10 AM 28.7°F-1.8°C 25.0°F-3.9°C 86% Calm Calm -- 30.22 in1023.4 mb - 0.00 in0.0 mm 0.00 in0.0 mm
07:15 AM 28.7°F-1.8°C 25.0°F-3.9°C 86% Calm Calm -- 30.22 in1023.4 mb - 0.00 in0.0 mm 0.00 in0.0 mm
07:20 AM 28.6°F-1.9°C 25.0°F-3.9°C 86% Calm Calm -- 30.23 in1023.7 mb - 0.00 in0.0 mm 0.00 in0.0 mm
07:25 AM 28.7°F-1.8°C 24.8°F-4.0°C 85% Calm Calm -- 30.22 in1023.4 mb - 0.00 in0.0 mm 0.00 in0.0 mm
07:30 AM 28.8°F-1.8°C 24.9°F-3.9°C 85% 1.2 mph NNW1.9 kmh NNW 2.3 mph3.7 kmh 30.23 in1023.7 mb - 0.00 in0.0 mm 0.00 in0.0 mm
07:35 AM 28.9°F-1.7°C 25.0°F-3.9°C 85% 1.2 mph NNW1.9 kmh NNW 1.2 mph1.9 kmh 30.23 in1023.7 mb - 0.00 in0.0 mm 0.00 in0.0 mm
07:40 AM 28.9°F-1.7°C 25.0°F-3.9°C 85% 1.2 mph NNW1.9 kmh NNW 2.3 mph3.7 kmh 30.23 in1023.7 mb - 0.00 in0.0 mm 0.00 in0.0 mm
07:45 AM 29.1°F-1.6°C 25.1°F-3.8°C 85% 1.2 mph NW1.9 kmh NW 3.5 mph5.6 kmh 30.24 in1024.0 mb - 0.00 in0.0 mm 0.00 in0.0 mm
07:50 AM 29.2°F-1.6°C 25.0°F-3.9°C 84% 1.2 mph NW1.9 kmh NW 2.3 mph3.7 kmh 30.24 in1024.0 mb - 0.00 in0.0 mm 0.00 in0.0 mm
07:55 AM 29.4°F-1.4°C 25.2°F-3.8°C 84% 1.2 mph NW1.9 kmh NW 2.3 mph3.7 kmh 30.24 in1024.0 mb - 0.00 in0.0 mm 0.00 in0.0 mm
08:00 AM 29.6°F-1.3°C 25.0°F-3.9°C 83% 1.2 mph NW1.9 kmh NW 2.3 mph3.7 kmh 30.24 in1024.0 mb - 0.00 in0.0 mm 0.00 in0.0 mm
08:10 AM 30.0°F-1.1°C 24.8°F-4.0°C 81% 1.2 mph NW1.9 kmh NW 2.3 mph3.7 kmh 30.25 in1024.4 mb - 0.00 in0.0 mm 0.00 in0.0 mm
08:15 AM 30.2°F-1.0°C 24.8°F-4.0°C 80% 2.3 mph NW3.7 kmh NW 3.5 mph5.6 kmh 30.25 in1024.4 mb - 0.00 in0.0 mm 0.00 in0.0 mm
08:20 AM 30.5°F-0.8°C 24.8°F-4.0°C 79% 2.3 mph NW3.7 kmh NW 4.6 mph7.4 kmh 30.25 in1024.4 mb - 0.00 in0.0 mm 0.00 in0.0 mm
08:25 AM 30.7°F-0.7°C 24.4°F-4.2°C 77% 2.3 mph NNW3.7 kmh NNW 3.5 mph5.6 kmh 30.26 in1024.7 mb - 0.00 in0.0 mm 0.00 in0.0 mm
08:30 AM 31.0°F-0.6°C 24.3°F-4.3°C 76% 2.3 mph NW3.7 kmh NW 3.5 mph5.6 kmh 30.26 in1024.7 mb - 0.00 in0.0 mm 0.00 in0.0 mm
08:35 AM 31.4°F-0.3°C 24.7°F-4.1°C 76% 2.3 mph N3.7 kmh N 4.6 mph7.4 kmh 30.26 in1024.7 mb - 0.00 in0.0 mm 0.00 in0.0 mm
08:40 AM 31.5°F-0.3°C 24.5°F-4.2°C 75% 2.3 mph N3.7 kmh N 3.5 mph5.6 kmh 30.27 in1025.1 mb - 0.00 in0.0 mm 0.00 in0.0 mm
08:45 AM 31.6°F-0.2°C 23.9°F-4.5°C 73% 2.3 mph WNW3.7 kmh WNW 5.8 mph9.3 kmh 30.27 in1025.1 mb - 0.00 in0.0 mm 0.00 in0.0 mm
08:50 AM 31.9°F-0.1°C 24.8°F-4.0°C 75% 2.3 mph NNE3.7 kmh NNE 3.5 mph5.6 kmh 30.27 in1025.1 mb - 0.00 in0.0 mm 0.00 in0.0 mm
08:55 AM 32.1°F0.1°C 24.1°F-4.4°C 72% 4.6 mph NNE7.4 kmh NNE 4.6 mph7.4 kmh 30.27 in1025.1 mb - 0.00 in0.0 mm 0.00 in0.0 mm
09:00 AM 32.1°F0.1°C 23.4°F-4.8°C 70% 3.5 mph NNW5.6 kmh NNW 3.5 mph5.6 kmh 30.27 in1025.1 mb - 0.00 in0.0 mm 0.00 in0.0 mm
09:10 AM 33.0°F0.6°C 24.0°F-4.4°C 69% 1.2 mph N1.9 kmh N 4.6 mph7.4 kmh 30.27 in1025.1 mb - 0.00 in0.0 mm 0.00 in0.0 mm
09:15 AM 32.8°F0.4°C 22.3°F-5.4°C 65% 2.3 mph NW3.7 kmh NW 3.5 mph5.6 kmh 30.27 in1025.1 mb - 0.00 in0.0 mm 0.00 in0.0 mm
09:20 AM 32.7°F0.4°C 22.2°F-5.4°C 65% 2.3 mph NW3.7 kmh NW 4.6 mph7.4 kmh 30.27 in1025.1 mb - 0.00 in0.0 mm 0.00 in0.0 mm
09:25 AM 33.1°F0.6°C 23.0°F-5.0°C 66% 2.3 mph NW3.7 kmh NW 3.5 mph5.6 kmh 30.27 in1025.1 mb - 0.00 in0.0 mm 0.00 in0.0 mm
09:30 AM 33.2°F0.7°C 22.4°F-5.3°C 64% 1.2 mph N1.9 kmh N 3.5 mph5.6 kmh 30.27 in1025.1 mb - 0.00 in0.0 mm 0.00 in0.0 mm
09:35 AM 33.9°F1.1°C 23.3°F-4.8°C 65% 2.3 mph NW3.7 kmh NW 5.8 mph9.3 kmh 30.27 in1025.1 mb - 0.00 in0.0 mm 0.00 in0.0 mm
09:40 AM 33.9°F1.1°C 22.6°F-5.2°C 63% 2.3 mph NW3.7 kmh NW 4.6 mph7.4 kmh 30.27 in1025.1 mb - 0.00 in0.0 mm 0.00 in0.0 mm
09:45 AM 33.8°F1.0°C 21.7°F-5.7°C 61% 2.3 mph WNW3.7 kmh WNW 3.5 mph5.6 kmh 30.27 in1025.1 mb - 0.00 in0.0 mm 0.00 in0.0 mm
09:50 AM 34.2°F1.2°C 23.2°F-4.9°C 64% 2.3 mph NW3.7 kmh NW 3.5 mph5.6 kmh 30.27 in1025.1 mb - 0.00 in0.0 mm 0.00 in0.0 mm
09:55 AM 34.7°F1.5°C 22.6°F-5.2°C 61% 3.5 mph N5.6 kmh N 3.5 mph5.6 kmh 30.27 in1025.1 mb - 0.00 in0.0 mm 0.00 in0.0 mm
10:00 AM 34.1°F1.2°C 21.6°F-5.8°C 60% 2.3 mph WNW3.7 kmh WNW 5.8 mph9.3 kmh 30.27 in1025.1 mb - 0.00 in0.0 mm 0.00 in0.0 mm
10:10 AM 34.5°F1.4°C 22.4°F-5.3°C 61% 2.3 mph WNW3.7 kmh WNW 3.5 mph5.6 kmh 30.27 in1025.1 mb - 0.00 in0.0 mm 0.00 in0.0 mm
10:15 AM 35.1°F1.7°C 23.0°F-5.0°C 61% 2.3 mph NNE3.7 kmh NNE 4.6 mph7.4 kmh 30.27 in1025.1 mb - 0.00 in0.0 mm 0.00 in0.0 mm
10:20 AM 35.4°F1.9°C 21.6°F-5.8°C 57% 2.3 mph NNE3.7 kmh NNE 3.5 mph5.6 kmh 30.27 in1025.1 mb - 0.00 in0.0 mm 0.00 in0.0 mm
10:25 AM 35.5°F1.9°C 22.2°F-5.4°C 58% 1.2 mph N1.9 kmh N 3.5 mph5.6 kmh 30.27 in1025.1 mb - 0.00 in0.0 mm 0.00 in0.0 mm
10:30 AM 36.1°F2.3°C 23.1°F-4.9°C 59% 3.5 mph N5.6 kmh N 4.6 mph7.4 kmh 30.27 in1025.1 mb - 0.00 in0.0 mm 0.00 in0.0 mm
10:35 AM 35.5°F1.9°C 22.2°F-5.4°C 58% 3.5 mph NE5.6 kmh NE 3.5 mph5.6 kmh 30.27 in1025.1 mb - 0.00 in0.0 mm 0.00 in0.0 mm
10:40 AM 35.1°F1.7°C 22.2°F-5.4°C 59% 1.2 mph S1.9 kmh S 3.5 mph5.6 kmh 30.27 in1025.1 mb - 0.00 in0.0 mm 0.00 in0.0 mm
10:45 AM 36.1°F2.3°C 23.5°F-4.7°C 60% 1.2 mph NW1.9 kmh NW 2.3 mph3.7 kmh 30.27 in1025.1 mb - 0.00 in0.0 mm 0.00 in0.0 mm
10:50 AM 36.9°F2.7°C 23.9°F-4.5°C 59% 2.3 mph WNW3.7 kmh WNW 3.5 mph5.6 kmh 30.27 in1025.1 mb - 0.00 in0.0 mm 0.00 in0.0 mm
10:55 AM 36.7°F2.6°C 22.5°F-5.3°C 56% 2.3 mph N3.7 kmh N 3.5 mph5.6 kmh 30.27 in1025.1 mb - 0.00 in0.0 mm 0.00 in0.0 mm
11:00 AM 37.6°F3.1°C 23.3°F-4.8°C 56% 3.5 mph WNW5.6 kmh WNW 6.9 mph11.1 kmh 30.27 in1025.1 mb - 0.00 in0.0 mm 0.00 in0.0 mm
11:10 AM 38.2°F3.4°C 21.6°F-5.8°C 51% 3.5 mph NW5.6 kmh NW 4.6 mph7.4 kmh 30.27 in1025.1 mb - 0.00 in0.0 mm 0.00 in0.0 mm
11:15 AM 37.5°F3.1°C 21.4°F-5.9°C 52% 2.3 mph WNW3.7 kmh WNW 4.6 mph7.4 kmh 30.27 in1025.1 mb - 0.00 in0.0 mm 0.00 in0.0 mm
11:20 AM 38.0°F3.3°C 20.5°F-6.4°C 49% 3.5 mph WNW5.6 kmh WNW 3.5 mph5.6 kmh 30.27 in1025.1 mb - 0.00 in0.0 mm 0.00 in0.0 mm
11:25 AM 38.2°F3.4°C 19.2°F-7.1°C 46% 2.3 mph N3.7 kmh N 3.5 mph5.6 kmh 30.26 in1024.7 mb - 0.00 in0.0 mm 0.00 in0.0 mm
11:30 AM 38.4°F3.6°C 19.9°F-6.7°C 47% 3.5 mph NNW5.6 kmh NNW 3.5 mph5.6 kmh 30.26 in1024.7 mb - 0.00 in0.0 mm 0.00 in0.0 mm
11:35 AM 38.8°F3.8°C 19.7°F-6.8°C 46% 2.3 mph N3.7 kmh N 3.5 mph5.6 kmh 30.26 in1024.7 mb - 0.00 in0.0 mm 0.00 in0.0 mm
11:40 AM 39.3°F4.1°C 19.7°F-6.8°C 45% 1.2 mph ESE1.9 kmh ESE 3.5 mph5.6 kmh 30.26 in1024.7 mb - 0.00 in0.0 mm 0.00 in0.0 mm
11:45 AM 39.6°F4.2°C 20.5°F-6.4°C 46% 3.5 mph WNW5.6 kmh WNW 5.8 mph9.3 kmh 30.26 in1024.7 mb - 0.00 in0.0 mm 0.00 in0.0 mm
11:50 AM 39.3°F4.1°C 21.7°F-5.7°C 49% 2.3 mph W3.7 kmh W 6.9 mph11.1 kmh 30.26 in1024.7 mb - 0.00 in0.0 mm 0.00 in0.0 mm
11:55 AM 39.3°F4.1°C 19.7°F-6.8°C 45% 2.3 mph N3.7 kmh N 3.5 mph5.6 kmh 30.26 in1024.7 mb - 0.00 in0.0 mm 0.00 in0.0 mm
12:00 PM 39.6°F4.2°C 21.5°F-5.8°C 48% 2.3 mph W3.7 kmh W 5.8 mph9.3 kmh 30.26 in1024.7 mb - 0.00 in0.0 mm 0.00 in0.0 mm
12:10 PM 39.9°F4.4°C 19.2°F-7.1°C 43% 1.2 mph WNW1.9 kmh WNW 2.3 mph3.7 kmh 30.25 in1024.4 mb - 0.00 in0.0 mm 0.00 in0.0 mm
12:15 PM 41.0°F5.0°C 21.3°F-5.9°C 45% 1.2 mph S1.9 kmh S 3.5 mph5.6 kmh 30.25 in1024.4 mb - 0.00 in0.0 mm 0.00 in0.0 mm
12:20 PM 40.9°F4.9°C 20.6°F-6.3°C 44% 3.5 mph W5.6 kmh W 5.8 mph9.3 kmh 30.25 in1024.4 mb - 0.00 in0.0 mm 0.00 in0.0 mm
12:25 PM 41.1°F5.1°C 19.7°F-6.8°C 42% 3.5 mph NW5.6 kmh NW 3.5 mph5.6 kmh 30.25 in1024.4 mb - 0.00 in0.0 mm 0.00 in0.0 mm
12:30 PM 41.4°F5.2°C 19.4°F-7.0°C 41% 3.5 mph W5.6 kmh W 3.5 mph5.6 kmh 30.25 in1024.4 mb - 0.00 in0.0 mm 0.00 in0.0 mm
12:35 PM 41.3°F5.2°C 21.0°F-6.1°C 44% 3.5 mph WNW5.6 kmh WNW 4.6 mph7.4 kmh 30.24 in1024.0 mb - 0.00 in0.0 mm 0.00 in0.0 mm
12:40 PM 40.3°F4.6°C 19.0°F-7.2°C 42% 1.2 mph W1.9 kmh W 1.2 mph1.9 kmh 30.24 in1024.0 mb - 0.00 in0.0 mm 0.00 in0.0 mm
12:45 PM 40.8°F4.9°C 20.5°F-6.4°C 44% 2.3 mph NW3.7 kmh NW 4.6 mph7.4 kmh 30.24 in1024.0 mb - 0.00 in0.0 mm 0.00 in0.0 mm
12:50 PM 41.8°F5.4°C 20.9°F-6.2°C 43% 4.6 mph W7.4 kmh W 6.9 mph11.1 kmh 30.23 in1023.7 mb - 0.00 in0.0 mm 0.00 in0.0 mm
12:55 PM 41.5°F5.3°C 20.1°F-6.6°C 42% 1.2 mph WNW1.9 kmh WNW 3.5 mph5.6 kmh 30.23 in1023.7 mb - 0.00 in0.0 mm 0.00 in0.0 mm
01:00 PM 42.4°F5.8°C 19.8°F-6.8°C 40% 2.3 mph W3.7 kmh W 3.5 mph5.6 kmh 30.23 in1023.7 mb - 0.00 in0.0 mm 0.00 in0.0 mm
01:10 PM 41.9°F5.5°C 18.1°F-7.7°C 38% 3.5 mph W5.6 kmh W 6.9 mph11.1 kmh 30.23 in1023.7 mb - 0.00 in0.0 mm 0.00 in0.0 mm
01:15 PM 41.8°F5.4°C 18.0°F-7.8°C 38% 1.2 mph WNW1.9 kmh WNW 3.5 mph5.6 kmh 30.23 in1023.7 mb - 0.00 in0.0 mm 0.00 in0.0 mm
01:20 PM 42.5°F5.8°C 19.2°F-7.1°C 39% 3.5 mph W5.6 kmh W 5.8 mph9.3 kmh 30.22 in1023.4 mb - 0.00 in0.0 mm 0.00 in0.0 mm
01:25 PM 43.4°F6.3°C 18.8°F-7.3°C 37% 3.5 mph NW5.6 kmh NW 4.6 mph7.4 kmh 30.22 in1023.4 mb - 0.00 in0.0 mm 0.00 in0.0 mm
01:30 PM 42.7°F5.9°C 18.2°F-7.7°C 37% 4.6 mph W7.4 kmh W 6.9 mph11.1 kmh 30.22 in1023.4 mb - 0.00 in0.0 mm 0.00 in0.0 mm
01:35 PM 43.4°F6.3°C 19.4°F-7.0°C 38% 2.3 mph NW3.7 kmh NW 3.5 mph5.6 kmh 30.21 in1023.0 mb - 0.00 in0.0 mm 0.00 in0.0 mm
01:40 PM 43.7°F6.5°C 18.5°F-7.5°C 36% 4.6 mph WNW7.4 kmh WNW 5.8 mph9.3 kmh 30.21 in1023.0 mb - 0.00 in0.0 mm 0.00 in0.0 mm
01:45 PM 44.6°F7.0°C 18.6°F-7.4°C 35% 3.5 mph NNW5.6 kmh NNW 3.5 mph5.6 kmh 30.22 in1023.4 mb - 0.00 in0.0 mm 0.00 in0.0 mm
01:50 PM 44.6°F7.0°C 17.9°F-7.8°C 34% 2.3 mph NNE3.7 kmh NNE 5.8 mph9.3 kmh 30.22 in1023.4 mb - 0.00 in0.0 mm 0.00 in0.0 mm
01:55 PM 44.0°F6.7°C 18.8°F-7.3°C 36% 2.3 mph WNW3.7 kmh WNW 3.5 mph5.6 kmh 30.21 in1023.0 mb - 0.00 in0.0 mm 0.00 in0.0 mm
02:00 PM 44.6°F7.0°C 19.2°F-7.1°C 36% 2.3 mph NNW3.7 kmh NNW 4.6 mph7.4 kmh 30.21 in1023.0 mb - 0.00 in0.0 mm 0.00 in0.0 mm
02:10 PM 44.6°F7.0°C 19.9°F-6.7°C 37% 3.5 mph WNW5.6 kmh WNW 3.5 mph5.6 kmh 30.21 in1023.0 mb - 0.00 in0.0 mm 0.00 in0.0 mm
02:15 PM 45.5°F7.5°C 21.3°F-5.9°C 38% 2.3 mph NW3.7 kmh NW 5.8 mph9.3 kmh 30.21 in1023.0 mb - 0.00 in0.0 mm 0.00 in0.0 mm
02:20 PM 45.1°F7.3°C 20.3°F-6.5°C 37% 2.3 mph W3.7 kmh W 3.5 mph5.6 kmh 30.21 in1023.0 mb - 0.00 in0.0 mm 0.00 in0.0 mm
02:25 PM 45.6°F7.6°C 20.1°F-6.6°C 36% 3.5 mph NW5.6 kmh NW 3.5 mph5.6 kmh 30.21 in1023.0 mb - 0.00 in0.0 mm 0.00 in0.0 mm
02:30 PM 45.6°F7.6°C 19.5°F-6.9°C 35% 2.3 mph WNW3.7 kmh WNW 2.3 mph3.7 kmh 30.21 in1023.0 mb - 0.00 in0.0 mm 0.00 in0.0 mm
02:35 PM 45.9°F7.7°C 19.1°F-7.2°C 34% 3.5 mph NW5.6 kmh NW 5.8 mph9.3 kmh 30.20 in1022.7 mb - 0.00 in0.0 mm 0.00 in0.0 mm
02:40 PM 46.0°F7.8°C 19.2°F-7.1°C 34% 3.5 mph W5.6 kmh W 4.6 mph7.4 kmh 30.20 in1022.7 mb - 0.00 in0.0 mm 0.00 in0.0 mm
02:45 PM 45.8°F7.7°C 19.0°F-7.2°C 34% 2.3 mph WNW3.7 kmh WNW 9.2 mph14.8 kmh 30.20 in1022.7 mb - 0.00 in0.0 mm 0.00 in0.0 mm
02:50 PM 46.0°F7.8°C 19.2°F-7.1°C 34% 4.6 mph WNW7.4 kmh WNW 9.2 mph14.8 kmh 30.19 in1022.4 mb - 0.00 in0.0 mm 0.00 in0.0 mm
02:55 PM 45.8°F7.7°C 18.3°F-7.6°C 33% 3.5 mph NW5.6 kmh NW 6.9 mph11.1 kmh 30.20 in1022.7 mb - 0.00 in0.0 mm 0.00 in0.0 mm
03:00 PM 46.0°F7.8°C 19.8°F-6.8°C 35% 2.3 mph WNW3.7 kmh WNW 3.5 mph5.6 kmh 30.19 in1022.4 mb - 0.00 in0.0 mm 0.00 in0.0 mm
03:10 PM 47.0°F8.3°C 20.0°F-6.7°C 34% 3.5 mph WNW5.6 kmh WNW 3.5 mph5.6 kmh 30.18 in1022.0 mb - 0.00 in0.0 mm 0.00 in0.0 mm
03:15 PM 46.6°F8.1°C 19.0°F-7.2°C 33% 3.5 mph W5.6 kmh W 3.5 mph5.6 kmh 30.19 in1022.4 mb - 0.00 in0.0 mm 0.00 in0.0 mm
03:20 PM 46.5°F8.1°C 18.9°F-7.3°C 33% 3.5 mph NW5.6 kmh NW 3.5 mph5.6 kmh 30.18 in1022.0 mb - 0.00 in0.0 mm 0.00 in0.0 mm
03:25 PM 46.9°F8.3°C 18.5°F-7.5°C 32% 3.5 mph NW5.6 kmh NW 6.9 mph11.1 kmh 30.18 in1022.0 mb - 0.00 in0.0 mm 0.00 in0.0 mm
03:30 PM 46.6°F8.1°C 17.6°F-8.0°C 31% 3.5 mph NNW5.6 kmh NNW 5.8 mph9.3 kmh 30.18 in1022.0 mb - 0.00 in0.0 mm 0.00 in0.0 mm
03:35 PM 46.5°F8.1°C 17.5°F-8.1°C 31% 2.3 mph WNW3.7 kmh WNW 8.1 mph13.0 kmh 30.18 in1022.0 mb - 0.00 in0.0 mm 0.00 in0.0 mm
03:40 PM 47.0°F8.3°C 17.9°F-7.8°C 31% 3.5 mph WNW5.6 kmh WNW 6.9 mph11.1 kmh 30.17 in1021.7 mb - 0.00 in0.0 mm 0.00 in0.0 mm
03:45 PM 46.8°F8.2°C 19.2°F-7.1°C 33% 3.5 mph NW5.6 kmh NW 3.5 mph5.6 kmh 30.17 in1021.7 mb - 0.00 in0.0 mm 0.00 in0.0 mm
03:50 PM 46.8°F8.2°C 18.5°F-7.5°C 32% 2.3 mph WNW3.7 kmh WNW 3.5 mph5.6 kmh 30.17 in1021.7 mb - 0.00 in0.0 mm 0.00 in0.0 mm
03:55 PM 47.4°F8.6°C 18.2°F-7.7°C 31% 2.3 mph W3.7 kmh W 3.5 mph5.6 kmh 30.16 in1021.3 mb - 0.00 in0.0 mm 0.00 in0.0 mm
04:00 PM 47.1°F8.4°C 17.2°F-8.2°C 30% 3.5 mph NW5.6 kmh NW 3.5 mph5.6 kmh 30.16 in1021.3 mb - 0.00 in0.0 mm 0.00 in0.0 mm
04:10 PM 47.2°F8.4°C 18.1°F-7.7°C 31% 1.2 mph WNW1.9 kmh WNW 3.5 mph5.6 kmh 30.16 in1021.3 mb - 0.00 in0.0 mm 0.00 in0.0 mm
04:15 PM 47.7°F8.7°C 18.5°F-7.5°C 31% 2.3 mph W3.7 kmh W 5.8 mph9.3 kmh 30.16 in1021.3 mb - 0.00 in0.0 mm 0.00 in0.0 mm
04:20 PM 47.6°F8.7°C 17.6°F-8.0°C 30% 2.3 mph W3.7 kmh W 3.5 mph5.6 kmh 30.16 in1021.3 mb - 0.00 in0.0 mm 0.00 in0.0 mm
04:25 PM 48.1°F8.9°C 18.8°F-7.3°C 31% 3.5 mph W5.6 kmh W 6.9 mph11.1 kmh 30.16 in1021.3 mb - 0.00 in0.0 mm 0.00 in0.0 mm
04:30 PM 47.2°F8.4°C 18.1°F-7.7°C 31% 2.3 mph S3.7 kmh S 3.5 mph5.6 kmh 30.16 in1021.3 mb - 0.00 in0.0 mm 0.00 in0.0 mm
04:35 PM 47.5°F8.6°C 19.1°F-7.2°C 32% 2.3 mph W3.7 kmh W 4.6 mph7.4 kmh 30.16 in1021.3 mb - 0.00 in0.0 mm 0.00 in0.0 mm
04:40 PM 47.0°F8.3°C 18.6°F-7.4°C 32% 3.5 mph W5.6 kmh W 5.8 mph9.3 kmh 30.16 in1021.3 mb - 0.00 in0.0 mm 0.00 in0.0 mm
04:45 PM 46.8°F8.2°C 17.7°F-7.9°C 31% 2.3 mph NW3.7 kmh NW 3.5 mph5.6 kmh 30.16 in1021.3 mb - 0.00 in0.0 mm 0.00 in0.0 mm
04:50 PM 47.3°F8.5°C 18.8°F-7.3°C 32% 3.5 mph WNW5.6 kmh WNW 4.6 mph7.4 kmh 30.16 in1021.3 mb - 0.00 in0.0 mm 0.00 in0.0 mm
04:55 PM 47.3°F8.5°C 18.1°F-7.7°C 31% 2.3 mph WNW3.7 kmh WNW 3.5 mph5.6 kmh 30.16 in1021.3 mb - 0.00 in0.0 mm 0.00 in0.0 mm
05:00 PM 47.9°F8.8°C 19.4°F-7.0°C 32% 2.3 mph WNW3.7 kmh WNW 3.5 mph5.6 kmh 30.16 in1021.3 mb - 0.00 in0.0 mm 0.00 in0.0 mm
05:10 PM 47.7°F8.7°C 18.5°F-7.5°C 31% 3.5 mph WNW5.6 kmh WNW 5.8 mph9.3 kmh 30.16 in1021.3 mb - 0.00 in0.0 mm 0.00 in0.0 mm
05:15 PM 47.6°F8.7°C 17.7°F-7.9°C 30% 2.3 mph NW3.7 kmh NW 3.5 mph5.6 kmh 30.15 in1021.0 mb - 0.00 in0.0 mm 0.00 in0.0 mm
05:20 PM 47.7°F8.7°C 17.7°F-7.9°C 30% 2.3 mph W3.7 kmh W 3.5 mph5.6 kmh 30.15 in1021.0 mb - 0.00 in0.0 mm 0.00 in0.0 mm
05:25 PM 47.9°F8.8°C 17.9°F-7.8°C 30% 2.3 mph W3.7 kmh W 3.5 mph5.6 kmh 30.16 in1021.3 mb - 0.00 in0.0 mm 0.00 in0.0 mm
05:30 PM 47.8°F8.8°C 18.6°F-7.4°C 31% 3.5 mph NW5.6 kmh NW 3.5 mph5.6 kmh 30.16 in1021.3 mb - 0.00 in0.0 mm 0.00 in0.0 mm
05:35 PM 47.6°F8.7°C 18.4°F-7.6°C 31% 2.3 mph W3.7 kmh W 3.5 mph5.6 kmh 30.15 in1021.0 mb - 0.00 in0.0 mm 0.00 in0.0 mm
05:40 PM 47.6°F8.7°C 17.7°F-7.9°C 30% 2.3 mph W3.7 kmh W 3.5 mph5.6 kmh 30.15 in1021.0 mb - 0.00 in0.0 mm 0.00 in0.0 mm
05:45 PM 47.4°F8.6°C 18.3°F-7.6°C 31% 3.5 mph W5.6 kmh W 5.8 mph9.3 kmh 30.15 in1021.0 mb - 0.00 in0.0 mm 0.00 in0.0 mm
05:50 PM 47.3°F8.5°C 18.1°F-7.7°C 31% 2.3 mph WNW3.7 kmh WNW 3.5 mph5.6 kmh 30.15 in1021.0 mb - 0.00 in0.0 mm 0.00 in0.0 mm
05:55 PM 47.2°F8.4°C 18.1°F-7.7°C 31% 2.3 mph W3.7 kmh W 5.8 mph9.3 kmh 30.15 in1021.0 mb - 0.00 in0.0 mm 0.00 in0.0 mm
06:00 PM 47.2°F8.4°C 18.1°F-7.7°C 31% 2.3 mph WNW3.7 kmh WNW 3.5 mph5.6 kmh 30.15 in1021.0 mb - 0.00 in0.0 mm 0.00 in0.0 mm
06:10 PM 47.1°F8.4°C 18.7°F-7.4°C 32% 2.3 mph W3.7 kmh W 3.5 mph5.6 kmh 30.15 in1021.0 mb - 0.00 in0.0 mm 0.00 in0.0 mm
06:15 PM 47.0°F8.3°C 18.7°F-7.4°C 32% 1.2 mph WNW1.9 kmh WNW 2.3 mph3.7 kmh 30.15 in1021.0 mb - 0.00 in0.0 mm 0.00 in0.0 mm
06:20 PM 46.9°F8.3°C 18.6°F-7.4°C 32% 1.2 mph NW1.9 kmh NW 1.2 mph1.9 kmh 30.15 in1021.0 mb - 0.00 in0.0 mm 0.00 in0.0 mm
06:25 PM 46.7°F8.2°C 18.4°F-7.6°C 32% 2.3 mph W3.7 kmh W 3.5 mph5.6 kmh 30.14 in1020.7 mb - 0.00 in0.0 mm 0.00 in0.0 mm
06:30 PM 46.5°F8.1°C 18.9°F-7.3°C 33% 1.2 mph W1.9 kmh W 3.5 mph5.6 kmh 30.15 in1021.0 mb - 0.00 in0.0 mm 0.00 in0.0 mm
06:35 PM 46.3°F7.9°C 18.0°F-7.8°C 32% 2.3 mph WNW3.7 kmh WNW 3.5 mph5.6 kmh 30.14 in1020.7 mb - 0.00 in0.0 mm 0.00 in0.0 mm
06:40 PM 46.2°F7.9°C 19.3°F-7.1°C 34% 1.2 mph W1.9 kmh W 2.3 mph3.7 kmh 30.14 in1020.7 mb - 0.00 in0.0 mm 0.00 in0.0 mm
06:45 PM 45.9°F7.7°C 18.4°F-7.6°C 33% 1.2 mph W1.9 kmh W 3.5 mph5.6 kmh 30.14 in1020.7 mb - 0.00 in0.0 mm 0.00 in0.0 mm
06:50 PM 45.5°F7.5°C 18.7°F-7.4°C 34% 1.2 mph W1.9 kmh W 2.3 mph3.7 kmh 30.14 in1020.7 mb - 0.00 in0.0 mm 0.00 in0.0 mm
06:55 PM 45.1°F7.3°C 18.4°F-7.6°C 34% Calm Calm -- 30.14 in1020.7 mb - 0.00 in0.0 mm 0.00 in0.0 mm
07:00 PM 44.8°F7.1°C 18.8°F-7.3°C 35% Calm Calm -- 30.14 in1020.7 mb - 0.00 in0.0 mm 0.00 in0.0 mm
07:10 PM 44.2°F6.8°C 19.6°F-6.9°C 37% Calm Calm -- 30.14 in1020.7 mb - 0.00 in0.0 mm 0.00 in0.0 mm
07:15 PM 44.1°F6.7°C 19.5°F-6.9°C 37% Calm Calm -- 30.14 in1020.7 mb - 0.00 in0.0 mm 0.00 in0.0 mm
07:20 PM 43.9°F6.6°C 19.9°F-6.7°C 38% Calm Calm -- 30.14 in1020.7 mb - 0.00 in0.0 mm 0.00 in0.0 mm
07:25 PM 43.8°F6.6°C 19.8°F-6.8°C 38% Calm Calm 1.2 mph1.9 kmh 30.14 in1020.7 mb - 0.00 in0.0 mm 0.00 in0.0 mm
07:30 PM 43.5°F6.4°C 19.6°F-6.9°C 38% Calm Calm 1.2 mph1.9 kmh 30.14 in1020.7 mb - 0.00 in0.0 mm 0.00 in0.0 mm
07:35 PM 43.4°F6.3°C 20.1°F-6.6°C 39% Calm Calm 1.2 mph1.9 kmh 30.14 in1020.7 mb - 0.00 in0.0 mm 0.00 in0.0 mm
07:40 PM 43.3°F6.3°C 19.4°F-7.0°C 38% Calm Calm 1.2 mph1.9 kmh 30.14 in1020.7 mb - 0.00 in0.0 mm 0.00 in0.0 mm
07:45 PM 43.3°F6.3°C 19.9°F-6.7°C 39% Calm Calm -- 30.14 in1020.7 mb - 0.00 in0.0 mm 0.00 in0.0 mm
07:50 PM 42.9°F6.1°C 19.6°F-6.9°C 39% Calm Calm -- 30.14 in1020.7 mb - 0.00 in0.0 mm 0.00 in0.0 mm
07:55 PM 42.7°F5.9°C 19.4°F-7.0°C 39% Calm Calm -- 30.14 in1020.7 mb - 0.00 in0.0 mm 0.00 in0.0 mm
08:00 PM 42.6°F5.9°C 19.3°F-7.1°C 39% Calm Calm -- 30.14 in1020.7 mb - 0.00 in0.0 mm 0.00 in0.0 mm
08:10 PM 42.5°F5.8°C 19.3°F-7.1°C 39% Calm Calm -- 30.14 in1020.7 mb - 0.00 in0.0 mm 0.00 in0.0 mm
08:15 PM 42.4°F5.8°C 19.8°F-6.8°C 40% Calm Calm -- 30.14 in1020.7 mb - 0.00 in0.0 mm 0.00 in0.0 mm
08:20 PM 42.2°F5.7°C 19.6°F-6.9°C 40% Calm Calm -- 30.14 in1020.7 mb - 0.00 in0.0 mm 0.00 in0.0 mm
08:25 PM 42.0°F5.6°C 20.0°F-6.7°C 41% Calm Calm -- 30.14 in1020.7 mb - 0.00 in0.0 mm 0.00 in0.0 mm
08:30 PM 41.9°F5.5°C 19.3°F-7.1°C 40% Calm Calm -- 30.14 in1020.7 mb - 0.00 in0.0 mm 0.00 in0.0 mm
08:35 PM 41.8°F5.4°C 19.2°F-7.1°C 40% Calm Calm -- 30.14 in1020.7 mb - 0.00 in0.0 mm 0.00 in0.0 mm
08:40 PM 41.7°F5.4°C 19.7°F-6.8°C 41% Calm Calm -- 30.14 in1020.7 mb - 0.00 in0.0 mm 0.00 in0.0 mm
08:45 PM 41.6°F5.3°C 19.6°F-6.9°C 41% Calm Calm -- 30.14 in1020.7 mb - 0.00 in0.0 mm 0.00 in0.0 mm
08:50 PM 41.5°F5.3°C 19.5°F-6.9°C 41% Calm Calm -- 30.14 in1020.7 mb - 0.00 in0.0 mm 0.00 in0.0 mm
08:55 PM 41.6°F5.3°C 19.0°F-7.2°C 40% Calm Calm -- 30.14 in1020.7 mb - 0.00 in0.0 mm 0.00 in0.0 mm
09:00 PM 41.3°F5.2°C 19.3°F-7.1°C 41% Calm Calm -- 30.14 in1020.7 mb - 0.00 in0.0 mm 0.00 in0.0 mm
09:10 PM 40.8°F4.9°C 19.5°F-6.9°C 42% Calm Calm -- 30.13 in1020.3 mb - 0.00 in0.0 mm 0.00 in0.0 mm
09:15 PM 40.8°F4.9°C 20.0°F-6.7°C 43% Calm Calm -- 30.14 in1020.7 mb - 0.00 in0.0 mm 0.00 in0.0 mm
09:20 PM 40.8°F4.9°C 20.0°F-6.7°C 43% Calm Calm -- 30.13 in1020.3 mb - 0.00 in0.0 mm 0.00 in0.0 mm
09:25 PM 40.9°F4.9°C 20.1°F-6.6°C 43% Calm Calm -- 30.13 in1020.3 mb - 0.00 in0.0 mm 0.00 in0.0 mm
09:30 PM 41.2°F5.1°C 19.8°F-6.8°C 42% Calm Calm 1.2 mph1.9 kmh 30.13 in1020.3 mb - 0.00 in0.0 mm 0.00 in0.0 mm
09:35 PM 41.3°F5.2°C 19.9°F-6.7°C 42% Calm Calm -- 30.13 in1020.3 mb - 0.00 in0.0 mm 0.00 in0.0 mm
09:40 PM 41.1°F5.1°C 20.3°F-6.5°C 43% Calm Calm 1.2 mph1.9 kmh 30.13 in1020.3 mb - 0.00 in0.0 mm 0.00 in0.0 mm
09:45 PM 41.0°F5.0°C 20.7°F-6.3°C 44% Calm Calm 1.2 mph1.9 kmh 30.13 in1020.3 mb - 0.00 in0.0 mm 0.00 in0.0 mm
09:50 PM 40.8°F4.9°C 20.5°F-6.4°C 44% 1.2 mph W1.9 kmh W 2.3 mph3.7 kmh 30.12 in1020.0 mb - 0.00 in0.0 mm 0.00 in0.0 mm
09:55 PM 40.6°F4.8°C 20.4°F-6.4°C 44% Calm Calm -- 30.12 in1020.0 mb - 0.00 in0.0 mm 0.00 in0.0 mm
10:00 PM 40.5°F4.7°C 20.8°F-6.2°C 45% Calm Calm -- 30.12 in1020.0 mb - 0.00 in0.0 mm 0.00 in0.0 mm
10:10 PM 40.2°F4.6°C 20.5°F-6.4°C 45% Calm Calm 1.2 mph1.9 kmh 30.12 in1020.0 mb - 0.00 in0.0 mm 0.00 in0.0 mm
10:15 PM 40.1°F4.5°C 20.4°F-6.4°C 45% Calm Calm 2.3 mph3.7 kmh 30.12 in1020.0 mb - 0.00 in0.0 mm 0.00 in0.0 mm
10:20 PM 40.2°F4.6°C 20.5°F-6.4°C 45% Calm Calm -- 30.12 in1020.0 mb - 0.00 in0.0 mm 0.00 in0.0 mm
10:25 PM 40.1°F4.5°C 21.0°F-6.1°C 46% Calm Calm 1.2 mph1.9 kmh 30.12 in1020.0 mb - 0.00 in0.0 mm 0.00 in0.0 mm
10:30 PM 39.8°F4.3°C 21.2°F-6.0°C 47% Calm Calm 1.2 mph1.9 kmh 30.12 in1020.0 mb - 0.00 in0.0 mm 0.00 in0.0 mm
10:35 PM 39.6°F4.2°C 21.0°F-6.1°C 47% Calm Calm 1.2 mph1.9 kmh 30.11 in1019.6 mb - 0.00 in0.0 mm 0.00 in0.0 mm
10:40 PM 39.4°F4.1°C 20.8°F-6.2°C 47% Calm Calm 1.2 mph1.9 kmh 30.11 in1019.6 mb - 0.00 in0.0 mm 0.00 in0.0 mm
10:45 PM 39.3°F4.1°C 21.2°F-6.0°C 48% Calm Calm -- 30.11 in1019.6 mb - 0.00 in0.0 mm 0.00 in0.0 mm
10:50 PM 38.9°F3.8°C 21.3°F-5.9°C 49% Calm Calm -- 30.11 in1019.6 mb - 0.00 in0.0 mm 0.00 in0.0 mm
10:55 PM 38.6°F3.7°C 21.1°F-6.1°C 49% Calm Calm -- 30.11 in1019.6 mb - 0.00 in0.0 mm 0.00 in0.0 mm
11:00 PM 38.4°F3.6°C 21.4°F-5.9°C 50% Calm Calm -- 30.11 in1019.6 mb - 0.00 in0.0 mm 0.00 in0.0 mm
11:10 PM 38.1°F3.4°C 21.5°F-5.8°C 51% Calm Calm 1.2 mph1.9 kmh 30.11 in1019.6 mb - 0.00 in0.0 mm 0.00 in0.0 mm
11:15 PM 37.9°F3.3°C 21.3°F-5.9°C 51% Calm Calm 1.2 mph1.9 kmh 30.11 in1019.6 mb - 0.00 in0.0 mm 0.00 in0.0 mm
11:20 PM 37.8°F3.2°C 21.3°F-5.9°C 51% Calm Calm -- 30.11 in1019.6 mb - 0.00 in0.0 mm 0.00 in0.0 mm
11:25 PM 37.7°F3.2°C 21.2°F-6.0°C 51% Calm Calm 1.2 mph1.9 kmh 30.11 in1019.6 mb - 0.00 in0.0 mm 0.00 in0.0 mm
11:30 PM 37.5°F3.1°C 21.5°F-5.8°C 52% Calm Calm 1.2 mph1.9 kmh 30.11 in1019.6 mb - 0.00 in0.0 mm 0.00 in0.0 mm
11:35 PM 37.6°F3.1°C 21.1°F-6.1°C 51% Calm Calm -- 30.11 in1019.6 mb - 0.00 in0.0 mm 0.00 in0.0 mm
11:40 PM 37.5°F3.1°C 21.5°F-5.8°C 52% Calm Calm -- 30.11 in1019.6 mb - 0.00 in0.0 mm 0.00 in0.0 mm
11:45 PM 37.3°F2.9°C 21.3°F-5.9°C 52% Calm Calm 1.2 mph1.9 kmh 30.11 in1019.6 mb - 0.00 in0.0 mm 0.00 in0.0 mm
11:50 PM 37.1°F2.8°C 21.9°F-5.6°C 54% 1.2 mph SW1.9 kmh SW 2.3 mph3.7 kmh 30.11 in1019.6 mb - 0.00 in0.0 mm 0.00 in0.0 mm
11:55 PM 36.7°F2.6°C 22.0°F-5.6°C 55% 1.2 mph SW1.9 kmh SW 2.3 mph3.7 kmh 30.11 in1019.6 mb - 0.00 in0.0 mm 0.00 in0.0 mm